KALX/ALX METAR and TAF weather

Enter ICAO airport designator
Station Type Date Time Source
KALX METAR 2018/07/21 11:15 UTC NOAA

KALX 211115Z AUTO 00000KT 7SM SCT070 24/24 A2991 RMK AO2 LTG DSNT NE AND E T02350235


Station Type Date Time Source
KALX Decoded METAR 2018/07/21 11:15 UTC NOAA

Alexander City, Thomas C Russell Field Airport, AL, United States (KALX) 32-54-53N 085-57-46W
Jul 21, 2018 - 07:15 AM EDT / 2018.07.21 1115 UTC
Wind: Calm:0
Visibility: 7 mile(s):0
Sky conditions: partly cloudy
Weather: Lightning observed
Temperature: 74.3 F (23.5 C)
Dew Point: 74.3 F (23.5 C)
Relative Humidity: 100%
Pressure (altimeter): 29.91 in. Hg (1012 hPa)
ob: KALX 211115Z AUTO 00000KT 7SM SCT070 24/24 A2991 RMK AO2 LTG DSNT NE AND E T02350235
cycle: 11

Station Type Date Time Source
KALX TAF UTC NOAA

Error!


Example: see airport list